Akiachak, Alaska
Current Conditions -  °F | °C
As of 8:07 PM on Monday 20 Oct 2014 (Local Time) from PFKW Reporting Station
Light Snow Light Snow  
Wind Chill: 20°   Ceiling: 700
Heat Index: 28°   Visibility: 3mi
Dew Point: 27°   Wind: 9mph
Humidity: 93%   Direction: 340°NNW
Pressure: 29.19"   Gusts: NA
Location:  60.91°N, 161.44°W
Report Text: PFKW 210407Z AUTO 34008KT 3SM -SN BR OVC007 M02/M03 A2919 RMK AO2 CIG 005V010 P0000 FZRANO
Loading
Personal Weather Stations






























Interactive Weather Map New forecast layout! Learn more

10-Day Weather Forecast

Advertisements
Track Severe Weather on mobile